sensor_id;sensor_type;location;lat;lon;timestamp;P1;durP1;ratioP1;P2;durP2;ratioP2
1294;SDS011;640;48.310;11.728;2023-02-04T00:00:33;1.10;;;0.80;;
1294;SDS011;640;48.310;11.728;2023-02-04T00:03:03;1.48;;;0.90;;
1294;SDS011;640;48.310;11.728;2023-02-04T00:05:32;1.80;;;1.30;;
1294;SDS011;640;48.310;11.728;2023-02-04T00:08:01;1.98;;;1.20;;
1294;SDS011;640;48.310;11.728;2023-02-04T00:10:33;1.65;;;1.20;;
1294;SDS011;640;48.310;11.728;2023-02-04T00:13:02;2.13;;;1.52;;
1294;SDS011;640;48.310;11.728;2023-02-04T00:15:31;1.65;;;1.20;;
1294;SDS011;640;48.310;11.728;2023-02-04T00:17:59;2.05;;;1.25;;
1294;SDS011;640;48.310;11.728;2023-02-04T00:20:27;1.95;;;1.20;;
1294;SDS011;640;48.310;11.728;2023-02-04T00:22:56;1.35;;;1.20;;
1294;SDS011;640;48.310;11.728;2023-02-04T00:25:25;2.05;;;1.30;;
1294;SDS011;640;48.310;11.728;2023-02-04T00:27:54;1.80;;;1.45;;
1294;SDS011;640;48.310;11.728;2023-02-04T00:30:23;1.90;;;1.43;;
1294;SDS011;640;48.310;11.728;2023-02-04T00:32:51;4.68;;;1.40;;
1294;SDS011;640;48.310;11.728;2023-02-04T00:35:21;4.90;;;1.75;;
1294;SDS011;640;48.310;11.728;2023-02-04T00:37:49;1.73;;;1.33;;
1294;SDS011;640;48.310;11.728;2023-02-04T00:40:18;2.42;;;1.75;;
1294;SDS011;640;48.310;11.728;2023-02-04T00:42:47;1.40;;;1.30;;
1294;SDS011;640;48.310;11.728;2023-02-04T00:45:17;0.90;;;0.90;;
1294;SDS011;640;48.310;11.728;2023-02-04T00:47:45;1.60;;;1.50;;
1294;SDS011;640;48.310;11.728;2023-02-04T00:50:14;2.22;;;1.42;;
1294;SDS011;640;48.310;11.728;2023-02-04T00:52:42;1.95;;;1.30;;
1294;SDS011;640;48.310;11.728;2023-02-04T00:55:11;1.27;;;1.17;;
1294;SDS011;640;48.310;11.728;2023-02-04T00:57:41;1.95;;;1.65;;
1294;SDS011;640;48.310;11.728;2023-02-04T01:00:10;7.30;;;2.08;;
1294;SDS011;640;48.310;11.728;2023-02-04T01:02:40;4.35;;;1.98;;
1294;SDS011;640;48.310;11.728;2023-02-04T01:05:09;5.80;;;2.20;;
1294;SDS011;640;48.310;11.728;2023-02-04T01:07:37;8.10;;;1.80;;
1294;SDS011;640;48.310;11.728;2023-02-04T01:10:06;5.97;;;2.17;;
1294;SDS011;640;48.310;11.728;2023-02-04T01:12:34;5.47;;;1.77;;
1294;SDS011;640;48.310;11.728;2023-02-04T01:15:03;8.57;;;1.92;;
1294;SDS011;640;48.310;11.728;2023-02-04T01:17:32;11.43;;;2.35;;
1294;SDS011;640;48.310;11.728;2023-02-04T01:20:02;11.65;;;2.35;;
1294;SDS011;640;48.310;11.728;2023-02-04T01:22:30;6.40;;;1.73;;
1294;SDS011;640;48.310;11.728;2023-02-04T01:24:58;4.43;;;1.80;;
1294;SDS011;640;48.310;11.728;2023-02-04T01:27:27;4.13;;;0.85;;
1294;SDS011;640;48.310;11.728;2023-02-04T01:29:55;3.90;;;2.05;;
1294;SDS011;640;48.310;11.728;2023-02-04T01:32:24;5.38;;;1.60;;
1294;SDS011;640;48.310;11.728;2023-02-04T01:34:52;4.80;;;1.65;;
1294;SDS011;640;48.310;11.728;2023-02-04T01:39:52;6.72;;;1.60;;
1294;SDS011;640;48.310;11.728;2023-02-04T01:42:20;10.85;;;2.38;;
1294;SDS011;640;48.310;11.728;2023-02-04T01:44:49;6.07;;;1.50;;
1294;SDS011;640;48.310;11.728;2023-02-04T01:47:18;7.47;;;1.77;;
1294;SDS011;640;48.310;11.728;2023-02-04T01:49:47;6.25;;;2.10;;
1294;SDS011;640;48.310;11.728;2023-02-04T01:52:18;8.13;;;1.83;;
1294;SDS011;640;48.310;11.728;2023-02-04T01:54:48;12.02;;;2.80;;
1294;SDS011;640;48.310;11.728;2023-02-04T01:57:17;11.52;;;2.03;;
1294;SDS011;640;48.310;11.728;2023-02-04T01:59:45;11.52;;;1.90;;
1294;SDS011;640;48.310;11.728;2023-02-04T02:05:08;7.32;;;1.52;;
1294;SDS011;640;48.310;11.728;2023-02-04T02:07:38;4.32;;;1.40;;
1294;SDS011;640;48.310;11.728;2023-02-04T02:10:08;4.65;;;1.75;;
1294;SDS011;640;48.310;11.728;2023-02-04T02:12:38;6.70;;;2.67;;
1294;SDS011;640;48.310;11.728;2023-02-04T02:15:07;9.45;;;3.08;;
1294;SDS011;640;48.310;11.728;2023-02-04T02:17:36;7.75;;;2.38;;
1294;SDS011;640;48.310;11.728;2023-02-04T02:20:06;14.80;;;2.78;;
1294;SDS011;640;48.310;11.728;2023-02-04T02:25:10;7.35;;;2.05;;
1294;SDS011;640;48.310;11.728;2023-02-04T02:27:40;9.38;;;1.83;;
1294;SDS011;640;48.310;11.728;2023-02-04T02:30:09;9.18;;;2.25;;
1294;SDS011;640;48.310;11.728;2023-02-04T02:32:38;5.50;;;2.10;;
1294;SDS011;640;48.310;11.728;2023-02-04T02:35:07;9.27;;;1.98;;
1294;SDS011;640;48.310;11.728;2023-02-04T02:37:36;11.80;;;2.17;;
1294;SDS011;640;48.310;11.728;2023-02-04T02:40:04;7.47;;;1.50;;
1294;SDS011;640;48.310;11.728;2023-02-04T02:42:35;11.82;;;2.38;;
1294;SDS011;640;48.310;11.728;2023-02-04T02:45:06;8.55;;;1.95;;
1294;SDS011;640;48.310;11.728;2023-02-04T02:47:47;12.35;;;2.40;;
1294;SDS011;640;48.310;11.728;2023-02-04T02:50:18;7.25;;;1.65;;
1294;SDS011;640;48.310;11.728;2023-02-04T02:52:48;8.40;;;2.13;;
1294;SDS011;640;48.310;11.728;2023-02-04T02:55:17;7.15;;;2.25;;
1294;SDS011;640;48.310;11.728;2023-02-04T02:57:48;9.57;;;2.22;;
1294;SDS011;640;48.310;11.728;2023-02-04T03:00:18;6.25;;;2.15;;
1294;SDS011;640;48.310;11.728;2023-02-04T03:02:53;6.32;;;2.42;;
1294;SDS011;640;48.310;11.728;2023-02-04T03:05:22;11.63;;;2.80;;
1294;SDS011;640;48.310;11.728;2023-02-04T03:07:50;8.30;;;2.00;;
1294;SDS011;640;48.310;11.728;2023-02-04T03:10:19;6.07;;;2.00;;
1294;SDS011;640;48.310;11.728;2023-02-04T03:12:49;7.05;;;2.00;;
1294;SDS011;640;48.310;11.728;2023-02-04T03:15:17;4.10;;;1.45;;
1294;SDS011;640;48.310;11.728;2023-02-04T03:17:46;6.15;;;1.30;;
1294;SDS011;640;48.310;11.728;2023-02-04T03:20:15;4.85;;;1.48;;
1294;SDS011;640;48.310;11.728;2023-02-04T03:22:44;7.78;;;2.08;;
1294;SDS011;640;48.310;11.728;2023-02-04T03:25:12;7.75;;;2.00;;
1294;SDS011;640;48.310;11.728;2023-02-04T03:27:41;9.88;;;2.55;;
1294;SDS011;640;48.310;11.728;2023-02-04T03:30:11;8.27;;;1.73;;
1294;SDS011;640;48.310;11.728;2023-02-04T03:32:39;4.45;;;1.35;;
1294;SDS011;640;48.310;11.728;2023-02-04T03:35:08;6.40;;;1.77;;
1294;SDS011;640;48.310;11.728;2023-02-04T03:37:36;3.97;;;1.50;;
1294;SDS011;640;48.310;11.728;2023-02-04T03:40:05;9.88;;;1.95;;
1294;SDS011;640;48.310;11.728;2023-02-04T03:42:34;7.72;;;1.55;;
1294;SDS011;640;48.310;11.728;2023-02-04T03:45:02;3.00;;;1.23;;
1294;SDS011;640;48.310;11.728;2023-02-04T03:47:32;3.95;;;1.10;;
1294;SDS011;640;48.310;11.728;2023-02-04T03:50:01;5.50;;;1.33;;
1294;SDS011;640;48.310;11.728;2023-02-04T03:52:29;5.53;;;1.33;;
1294;SDS011;640;48.310;11.728;2023-02-04T03:54:57;4.50;;;1.20;;
1294;SDS011;640;48.310;11.728;2023-02-04T03:57:26;3.10;;;1.40;;
1294;SDS011;640;48.310;11.728;2023-02-04T03:59:54;3.20;;;1.33;;
1294;SDS011;640;48.310;11.728;2023-02-04T04:02:22;7.45;;;1.80;;
1294;SDS011;640;48.310;11.728;2023-02-04T04:04:52;7.22;;;1.35;;
1294;SDS011;640;48.310;11.728;2023-02-04T04:07:21;10.20;;;1.83;;
1294;SDS011;640;48.310;11.728;2023-02-04T04:09:49;5.43;;;1.48;;
1294;SDS011;640;48.310;11.728;2023-02-04T04:12:17;10.32;;;1.40;;
1294;SDS011;640;48.310;11.728;2023-02-04T04:14:46;6.35;;;2.05;;
1294;SDS011;640;48.310;11.728;2023-02-04T04:17:14;5.38;;;1.45;;
1294;SDS011;640;48.310;11.728;2023-02-04T04:19:43;8.40;;;2.00;;
1294;SDS011;640;48.310;11.728;2023-02-04T04:22:13;5.85;;;1.73;;
1294;SDS011;640;48.310;11.728;2023-02-04T04:24:41;8.47;;;1.80;;
1294;SDS011;640;48.310;11.728;2023-02-04T04:27:09;7.07;;;1.83;;
1294;SDS011;640;48.310;11.728;2023-02-04T04:29:38;7.97;;;1.88;;
1294;SDS011;640;48.310;11.728;2023-02-04T04:32:06;10.00;;;1.77;;
1294;SDS011;640;48.310;11.728;2023-02-04T04:34:35;12.63;;;1.98;;
1294;SDS011;640;48.310;11.728;2023-02-04T04:37:04;4.55;;;1.40;;
1294;SDS011;640;48.310;11.728;2023-02-04T04:39:33;3.60;;;1.30;;
1294;SDS011;640;48.310;11.728;2023-02-04T04:42:02;10.07;;;2.73;;
1294;SDS011;640;48.310;11.728;2023-02-04T04:44:30;14.48;;;2.13;;
1294;SDS011;640;48.310;11.728;2023-02-04T04:46:59;7.45;;;2.08;;
1294;SDS011;640;48.310;11.728;2023-02-04T04:49:27;7.00;;;1.20;;
1294;SDS011;640;48.310;11.728;2023-02-04T04:51:56;6.28;;;1.42;;
1294;SDS011;640;48.310;11.728;2023-02-04T04:54:24;7.13;;;1.95;;
1294;SDS011;640;48.310;11.728;2023-02-04T04:56:54;8.20;;;2.10;;
1294;SDS011;640;48.310;11.728;2023-02-04T04:59:22;9.82;;;3.47;;
1294;SDS011;640;48.310;11.728;2023-02-04T05:01:51;5.47;;;1.40;;
1294;SDS011;640;48.310;11.728;2023-02-04T05:04:19;10.63;;;1.90;;
1294;SDS011;640;48.310;11.728;2023-02-04T05:06:48;9.60;;;2.25;;
1294;SDS011;640;48.310;11.728;2023-02-04T05:09:16;5.10;;;1.60;;
1294;SDS011;640;48.310;11.728;2023-02-04T05:11:44;11.18;;;2.17;;
1294;SDS011;640;48.310;11.728;2023-02-04T05:14:15;7.25;;;1.60;;
1294;SDS011;640;48.310;11.728;2023-02-04T05:16:43;10.45;;;1.63;;
1294;SDS011;640;48.310;11.728;2023-02-04T05:19:11;7.63;;;1.40;;
1294;SDS011;640;48.310;11.728;2023-02-04T05:21:40;7.05;;;1.75;;
1294;SDS011;640;48.310;11.728;2023-02-04T05:24:08;7.25;;;1.40;;
1294;SDS011;640;48.310;11.728;2023-02-04T05:26:36;8.77;;;1.30;;
1294;SDS011;640;48.310;11.728;2023-02-04T05:29:05;13.68;;;1.90;;
1294;SDS011;640;48.310;11.728;2023-02-04T05:31:37;9.38;;;1.58;;
1294;SDS011;640;48.310;11.728;2023-02-04T05:34:06;3.15;;;1.45;;
1294;SDS011;640;48.310;11.728;2023-02-04T05:36:34;8.68;;;2.25;;
1294;SDS011;640;48.310;11.728;2023-02-04T05:39:02;4.72;;;1.42;;
1294;SDS011;640;48.310;11.728;2023-02-04T05:41:31;12.43;;;1.70;;
1294;SDS011;640;48.310;11.728;2023-02-04T05:43:59;5.00;;;1.42;;
1294;SDS011;640;48.310;11.728;2023-02-04T05:46:28;10.55;;;2.13;;
1294;SDS011;640;48.310;11.728;2023-02-04T05:48:57;8.00;;;1.23;;
1294;SDS011;640;48.310;11.728;2023-02-04T05:51:26;6.97;;;2.10;;
1294;SDS011;640;48.310;11.728;2023-02-04T05:53:54;8.10;;;2.08;;
1294;SDS011;640;48.310;11.728;2023-02-04T05:56:22;7.93;;;1.40;;
1294;SDS011;640;48.310;11.728;2023-02-04T05:58:52;5.20;;;1.73;;
1294;SDS011;640;48.310;11.728;2023-02-04T06:01:20;5.07;;;1.40;;
1294;SDS011;640;48.310;11.728;2023-02-04T06:03:48;8.63;;;2.03;;
1294;SDS011;640;48.310;11.728;2023-02-04T06:06:18;5.82;;;1.88;;
1294;SDS011;640;48.310;11.728;2023-02-04T06:08:47;6.57;;;1.73;;
1294;SDS011;640;48.310;11.728;2023-02-04T06:11:15;4.68;;;1.45;;
1294;SDS011;640;48.310;11.728;2023-02-04T06:13:44;13.32;;;2.30;;
1294;SDS011;640;48.310;11.728;2023-02-04T06:16:12;7.32;;;1.80;;
1294;SDS011;640;48.310;11.728;2023-02-04T06:18:40;4.07;;;1.42;;
1294;SDS011;640;48.310;11.728;2023-02-04T06:21:09;11.45;;;2.10;;
1294;SDS011;640;48.310;11.728;2023-02-04T06:23:39;8.75;;;1.98;;
1294;SDS011;640;48.310;11.728;2023-02-04T06:26:07;7.23;;;2.07;;
1294;SDS011;640;48.310;11.728;2023-02-04T06:28:35;4.78;;;1.58;;
1294;SDS011;640;48.310;11.728;2023-02-04T06:31:04;10.45;;;2.03;;
1294;SDS011;640;48.310;11.728;2023-02-04T06:33:35;3.45;;;1.48;;
1294;SDS011;640;48.310;11.728;2023-02-04T06:36:03;8.25;;;1.55;;
1294;SDS011;640;48.310;11.728;2023-02-04T06:38:32;6.20;;;1.80;;
1294;SDS011;640;48.310;11.728;2023-02-04T06:41:01;1.83;;;1.05;;
1294;SDS011;640;48.310;11.728;2023-02-04T06:43:30;7.77;;;1.87;;
1294;SDS011;640;48.310;11.728;2023-02-04T06:45:58;5.97;;;1.60;;
1294;SDS011;640;48.310;11.728;2023-02-04T06:48:27;9.55;;;1.85;;
1294;SDS011;640;48.310;11.728;2023-02-04T06:50:57;8.75;;;1.67;;
1294;SDS011;640;48.310;11.728;2023-02-04T06:53:25;5.32;;;1.48;;
1294;SDS011;640;48.310;11.728;2023-02-04T06:55:53;15.38;;;1.60;;
1294;SDS011;640;48.310;11.728;2023-02-04T06:58:23;4.93;;;1.60;;
1294;SDS011;640;48.310;11.728;2023-02-04T07:00:51;5.72;;;1.55;;
1294;SDS011;640;48.310;11.728;2023-02-04T07:03:20;8.82;;;1.77;;
1294;SDS011;640;48.310;11.728;2023-02-04T07:05:48;7.22;;;1.88;;
1294;SDS011;640;48.310;11.728;2023-02-04T07:08:18;10.80;;;2.28;;
1294;SDS011;640;48.310;11.728;2023-02-04T07:10:47;5.25;;;2.15;;
1294;SDS011;640;48.310;11.728;2023-02-04T07:13:16;5.75;;;1.98;;
1294;SDS011;640;48.310;11.728;2023-02-04T07:15:45;4.90;;;1.77;;
1294;SDS011;640;48.310;11.728;2023-02-04T07:18:14;12.32;;;3.00;;
1294;SDS011;640;48.310;11.728;2023-02-04T07:20:42;8.65;;;1.77;;
1294;SDS011;640;48.310;11.728;2023-02-04T07:23:10;7.40;;;2.10;;
1294;SDS011;640;48.310;11.728;2023-02-04T07:25:39;9.60;;;1.05;;
1294;SDS011;640;48.310;11.728;2023-02-04T07:28:07;8.00;;;1.70;;
1294;SDS011;640;48.310;11.728;2023-02-04T07:30:36;4.07;;;1.40;;
1294;SDS011;640;48.310;11.728;2023-02-04T07:33:06;7.70;;;1.40;;
1294;SDS011;640;48.310;11.728;2023-02-04T07:35:34;11.03;;;1.60;;
1294;SDS011;640;48.310;11.728;2023-02-04T07:38:03;9.93;;;1.50;;
1294;SDS011;640;48.310;11.728;2023-02-04T07:40:32;4.43;;;1.00;;
1294;SDS011;640;48.310;11.728;2023-02-04T07:43:01;10.63;;;1.77;;
1294;SDS011;640;48.310;11.728;2023-02-04T07:45:29;5.15;;;1.67;;
1294;SDS011;640;48.310;11.728;2023-02-04T07:47:57;5.78;;;2.28;;
1294;SDS011;640;48.310;11.728;2023-02-04T07:50:27;7.30;;;1.80;;
1294;SDS011;640;48.310;11.728;2023-02-04T07:52:56;7.97;;;1.52;;
1294;SDS011;640;48.310;11.728;2023-02-04T07:55:25;3.67;;;1.30;;
1294;SDS011;640;48.310;11.728;2023-02-04T07:57:53;3.70;;;1.40;;
1294;SDS011;640;48.310;11.728;2023-02-04T08:00:22;3.55;;;1.45;;
1294;SDS011;640;48.310;11.728;2023-02-04T08:02:51;4.63;;;1.77;;
1294;SDS011;640;48.310;11.728;2023-02-04T08:05:19;4.72;;;1.15;;
1294;SDS011;640;48.310;11.728;2023-02-04T08:07:49;5.80;;;1.80;;
1294;SDS011;640;48.310;11.728;2023-02-04T08:10:17;6.43;;;1.70;;
1294;SDS011;640;48.310;11.728;2023-02-04T08:12:47;7.65;;;1.33;;
1294;SDS011;640;48.310;11.728;2023-02-04T08:15:15;7.70;;;1.55;;
1294;SDS011;640;48.310;11.728;2023-02-04T08:17:44;5.70;;;1.60;;
1294;SDS011;640;48.310;11.728;2023-02-04T08:20:12;4.75;;;1.05;;
1294;SDS011;640;48.310;11.728;2023-02-04T08:22:40;4.93;;;1.33;;
1294;SDS011;640;48.310;11.728;2023-02-04T08:25:10;4.53;;;1.00;;
1294;SDS011;640;48.310;11.728;2023-02-04T08:27:39;4.18;;;0.82;;
1294;SDS011;640;48.310;11.728;2023-02-04T08:30:08;4.20;;;0.95;;
1294;SDS011;640;48.310;11.728;2023-02-04T08:32:38;4.68;;;1.17;;
1294;SDS011;640;48.310;11.728;2023-02-04T08:35:06;5.35;;;1.35;;
1294;SDS011;640;48.310;11.728;2023-02-04T08:37:35;1.60;;;0.88;;
1294;SDS011;640;48.310;11.728;2023-02-04T08:40:04;3.45;;;0.98;;
1294;SDS011;640;48.310;11.728;2023-02-04T08:42:34;3.50;;;1.27;;
1294;SDS011;640;48.310;11.728;2023-02-04T08:45:03;6.63;;;1.30;;
1294;SDS011;640;48.310;11.728;2023-02-04T08:47:31;4.55;;;1.23;;
1294;SDS011;640;48.310;11.728;2023-02-04T08:49:59;11.75;;;1.92;;
1294;SDS011;640;48.310;11.728;2023-02-04T08:52:28;8.00;;;1.80;;
1294;SDS011;640;48.310;11.728;2023-02-04T08:54:56;5.97;;;1.00;;
1294;SDS011;640;48.310;11.728;2023-02-04T08:57:24;4.85;;;1.85;;
1294;SDS011;640;48.310;11.728;2023-02-04T08:59:54;9.13;;;1.90;;
1294;SDS011;640;48.310;11.728;2023-02-04T09:02:22;6.73;;;1.80;;
1294;SDS011;640;48.310;11.728;2023-02-04T09:04:51;5.22;;;1.48;;
1294;SDS011;640;48.310;11.728;2023-02-04T09:07:19;6.35;;;1.48;;
1294;SDS011;640;48.310;11.728;2023-02-04T09:09:48;5.03;;;1.05;;
1294;SDS011;640;48.310;11.728;2023-02-04T09:12:16;10.15;;;1.60;;
1294;SDS011;640;48.310;11.728;2023-02-04T09:14:44;9.57;;;2.22;;
1294;SDS011;640;48.310;11.728;2023-02-04T09:17:14;32.03;;;2.33;;
1294;SDS011;640;48.310;11.728;2023-02-04T09:19:42;3.20;;;0.87;;
1294;SDS011;640;48.310;11.728;2023-02-04T09:22:11;1.00;;;0.60;;
1294;SDS011;640;48.310;11.728;2023-02-04T09:24:39;0.38;;;0.32;;
1294;SDS011;640;48.310;11.728;2023-02-04T09:27:08;0.60;;;0.60;;
1294;SDS011;640;48.310;11.728;2023-02-04T09:29:36;0.95;;;0.68;;
1294;SDS011;640;48.310;11.728;2023-02-04T09:32:04;1.35;;;0.90;;
1294;SDS011;640;48.310;11.728;2023-02-04T09:34:34;0.50;;;0.50;;
1294;SDS011;640;48.310;11.728;2023-02-04T09:37:03;0.83;;;0.80;;
1294;SDS011;640;48.310;11.728;2023-02-04T09:39:31;3.40;;;0.90;;
1294;SDS011;640;48.310;11.728;2023-02-04T09:41:59;2.47;;;1.73;;
1294;SDS011;640;48.310;11.728;2023-02-04T09:44:28;3.83;;;1.10;;
1294;SDS011;640;48.310;11.728;2023-02-04T09:46:57;2.88;;;1.35;;
1294;SDS011;640;48.310;11.728;2023-02-04T09:49:27;2.28;;;1.20;;
1294;SDS011;640;48.310;11.728;2023-02-04T09:51:57;3.10;;;1.20;;
1294;SDS011;640;48.310;11.728;2023-02-04T09:54:25;1.65;;;0.93;;
1294;SDS011;640;48.310;11.728;2023-02-04T09:56:53;2.13;;;1.00;;
1294;SDS011;640;48.310;11.728;2023-02-04T09:59:25;0.80;;;0.70;;
1294;SDS011;640;48.310;11.728;2023-02-04T10:01:55;1.88;;;1.35;;
1294;SDS011;640;48.310;11.728;2023-02-04T10:04:25;3.33;;;1.70;;
1294;SDS011;640;48.310;11.728;2023-02-04T10:06:54;1.42;;;0.82;;
1294;SDS011;640;48.310;11.728;2023-02-04T10:11:53;2.47;;;1.45;;
1294;SDS011;640;48.310;11.728;2023-02-04T10:14:22;1.30;;;1.00;;
1294;SDS011;640;48.310;11.728;2023-02-04T10:16:51;3.08;;;1.10;;
1294;SDS011;640;48.310;11.728;2023-02-04T10:19:24;1.65;;;1.15;;
1294;SDS011;640;48.310;11.728;2023-02-04T10:21:54;2.30;;;1.40;;
1294;SDS011;640;48.310;11.728;2023-02-04T10:24:23;2.13;;;1.20;;
1294;SDS011;640;48.310;11.728;2023-02-04T10:26:54;3.97;;;1.73;;
1294;SDS011;640;48.310;11.728;2023-02-04T10:29:33;0.77;;;0.70;;
1294;SDS011;640;48.310;11.728;2023-02-04T10:32:02;2.45;;;0.65;;
1294;SDS011;640;48.310;11.728;2023-02-04T10:34:32;1.48;;;0.77;;
1294;SDS011;640;48.310;11.728;2023-02-04T10:37:11;4.72;;;0.80;;
1294;SDS011;640;48.310;11.728;2023-02-04T10:39:42;1.52;;;0.77;;
1294;SDS011;640;48.310;11.728;2023-02-04T10:42:17;1.65;;;0.98;;
1294;SDS011;640;48.310;11.728;2023-02-04T10:44:47;1.35;;;0.82;;
1294;SDS011;640;48.310;11.728;2023-02-04T10:47:16;3.22;;;1.10;;
1294;SDS011;640;48.310;11.728;2023-02-04T10:49:53;1.00;;;0.90;;
1294;SDS011;640;48.310;11.728;2023-02-04T10:52:23;3.15;;;0.90;;
1294;SDS011;640;48.310;11.728;2023-02-04T10:54:55;2.00;;;1.00;;
1294;SDS011;640;48.310;11.728;2023-02-04T10:57:25;2.65;;;1.50;;
1294;SDS011;640;48.310;11.728;2023-02-04T10:59:54;3.17;;;1.10;;
1294;SDS011;640;48.310;11.728;2023-02-04T11:05:11;2.10;;;1.17;;
1294;SDS011;640;48.310;11.728;2023-02-04T11:07:41;1.17;;;0.65;;
1294;SDS011;640;48.310;11.728;2023-02-04T11:10:13;1.10;;;0.73;;
1294;SDS011;640;48.310;11.728;2023-02-04T11:12:43;3.42;;;1.10;;
1294;SDS011;640;48.310;11.728;2023-02-04T11:18:05;2.05;;;1.23;;
1294;SDS011;640;48.310;11.728;2023-02-04T11:20:35;3.38;;;1.20;;
1294;SDS011;640;48.310;11.728;2023-02-04T11:23:15;3.75;;;1.20;;
1294;SDS011;640;48.310;11.728;2023-02-04T11:26:02;5.22;;;1.40;;
1294;SDS011;640;48.310;11.728;2023-02-04T11:28:44;5.03;;;1.05;;
1294;SDS011;640;48.310;11.728;2023-02-04T11:31:38;2.15;;;0.93;;
1294;SDS011;640;48.310;11.728;2023-02-04T11:34:11;2.15;;;1.20;;
1294;SDS011;640;48.310;11.728;2023-02-04T11:37:00;4.43;;;1.30;;
1294;SDS011;640;48.310;11.728;2023-02-04T11:39:38;3.90;;;1.38;;
1294;SDS011;640;48.310;11.728;2023-02-04T11:45:00;2.00;;;1.15;;
1294;SDS011;640;48.310;11.728;2023-02-04T11:47:33;3.20;;;1.20;;
1294;SDS011;640;48.310;11.728;2023-02-04T11:50:03;1.95;;;1.13;;
1294;SDS011;640;48.310;11.728;2023-02-04T11:52:39;2.45;;;1.10;;
1294;SDS011;640;48.310;11.728;2023-02-04T11:55:08;2.67;;;1.50;;
1294;SDS011;640;48.310;11.728;2023-02-04T11:57:39;3.07;;;1.37;;
1294;SDS011;640;48.310;11.728;2023-02-04T12:00:11;3.92;;;1.73;;
1294;SDS011;640;48.310;11.728;2023-02-04T12:02:41;3.53;;;2.10;;
1294;SDS011;640;48.310;11.728;2023-02-04T12:05:12;1.42;;;1.20;;
1294;SDS011;640;48.310;11.728;2023-02-04T12:07:42;5.83;;;1.20;;
1294;SDS011;640;48.310;11.728;2023-02-04T12:10:11;1.75;;;1.05;;
1294;SDS011;640;48.310;11.728;2023-02-04T12:15:15;0.75;;;0.60;;
1294;SDS011;640;48.310;11.728;2023-02-04T12:17:45;1.00;;;0.90;;
1294;SDS011;640;48.310;11.728;2023-02-04T12:20:13;1.00;;;0.95;;
1294;SDS011;640;48.310;11.728;2023-02-04T12:22:42;1.75;;;1.17;;
1294;SDS011;640;48.310;11.728;2023-02-04T12:25:10;1.58;;;1.38;;
1294;SDS011;640;48.310;11.728;2023-02-04T12:27:44;1.90;;;1.10;;
1294;SDS011;640;48.310;11.728;2023-02-04T12:30:12;1.85;;;1.30;;
1294;SDS011;640;48.310;11.728;2023-02-04T12:32:41;1.65;;;1.13;;
1294;SDS011;640;48.310;11.728;2023-02-04T12:35:09;1.08;;;0.73;;
1294;SDS011;640;48.310;11.728;2023-02-04T12:37:37;1.52;;;0.60;;
1294;SDS011;640;48.310;11.728;2023-02-04T12:40:06;0.95;;;0.73;;
1294;SDS011;640;48.310;11.728;2023-02-04T12:42:35;2.03;;;0.90;;
1294;SDS011;640;48.310;11.728;2023-02-04T12:45:05;1.30;;;0.70;;
1294;SDS011;640;48.310;11.728;2023-02-04T12:50:02;2.00;;;1.08;;
1294;SDS011;640;48.310;11.728;2023-02-04T12:52:31;2.40;;;0.63;;
1294;SDS011;640;48.310;11.728;2023-02-04T12:54:59;0.60;;;0.60;;
1294;SDS011;640;48.310;11.728;2023-02-04T12:57:30;0.77;;;0.52;;
1294;SDS011;640;48.310;11.728;2023-02-04T12:59:59;0.30;;;0.30;;
1294;SDS011;640;48.310;11.728;2023-02-04T13:02:28;0.30;;;0.30;;
1294;SDS011;640;48.310;11.728;2023-02-04T13:04:57;2.70;;;0.97;;
1294;SDS011;640;48.310;11.728;2023-02-04T13:07:25;1.00;;;0.80;;
1294;SDS011;640;48.310;11.728;2023-02-04T13:09:54;0.90;;;0.80;;
1294;SDS011;640;48.310;11.728;2023-02-04T13:12:23;1.55;;;1.00;;
1294;SDS011;640;48.310;11.728;2023-02-04T13:14:51;0.82;;;0.80;;
1294;SDS011;640;48.310;11.728;2023-02-04T13:17:20;1.70;;;0.70;;
1294;SDS011;640;48.310;11.728;2023-02-04T13:19:49;1.08;;;0.60;;
1294;SDS011;640;48.310;11.728;2023-02-04T13:22:18;1.40;;;0.73;;
1294;SDS011;640;48.310;11.728;2023-02-04T13:24:47;1.05;;;0.60;;
1294;SDS011;640;48.310;11.728;2023-02-04T13:27:15;0.40;;;0.40;;
1294;SDS011;640;48.310;11.728;2023-02-04T13:29:43;0.50;;;0.50;;
1294;SDS011;640;48.310;11.728;2023-02-04T13:32:12;0.40;;;0.35;;
1294;SDS011;640;48.310;11.728;2023-02-04T13:34:40;1.05;;;0.70;;
1294;SDS011;640;48.310;11.728;2023-02-04T13:37:10;1.00;;;0.65;;
1294;SDS011;640;48.310;11.728;2023-02-04T13:39:38;0.30;;;0.30;;
1294;SDS011;640;48.310;11.728;2023-02-04T13:42:07;0.50;;;0.45;;
1294;SDS011;640;48.310;11.728;2023-02-04T13:44:35;0.40;;;0.40;;
1294;SDS011;640;48.310;11.728;2023-02-04T13:47:03;0.50;;;0.50;;
1294;SDS011;640;48.310;11.728;2023-02-04T13:49:32;0.65;;;0.50;;
1294;SDS011;640;48.310;11.728;2023-02-04T13:52:00;0.50;;;0.50;;
1294;SDS011;640;48.310;11.728;2023-02-04T13:54:30;0.60;;;0.60;;
1294;SDS011;640;48.310;11.728;2023-02-04T13:56:58;0.40;;;0.40;;
1294;SDS011;640;48.310;11.728;2023-02-04T13:59:27;0.40;;;0.40;;
1294;SDS011;640;48.310;11.728;2023-02-04T14:01:55;1.05;;;0.77;;
1294;SDS011;640;48.310;11.728;2023-02-04T14:04:23;0.80;;;0.80;;
1294;SDS011;640;48.310;11.728;2023-02-04T14:06:52;1.30;;;0.70;;
1294;SDS011;640;48.310;11.728;2023-02-04T14:09:22;0.52;;;0.52;;
1294;SDS011;640;48.310;11.728;2023-02-04T14:11:52;0.60;;;0.60;;
1294;SDS011;640;48.310;11.728;2023-02-04T14:14:20;0.93;;;0.73;;
1294;SDS011;640;48.310;11.728;2023-02-04T14:16:49;0.45;;;0.35;;
1294;SDS011;640;48.310;11.728;2023-02-04T14:19:17;1.00;;;0.50;;
1294;SDS011;640;48.310;11.728;2023-02-04T14:21:46;0.40;;;0.40;;
1294;SDS011;640;48.310;11.728;2023-02-04T14:24:15;1.45;;;0.93;;
1294;SDS011;640;48.310;11.728;2023-02-04T14:26:44;2.63;;;0.65;;
1294;SDS011;640;48.310;11.728;2023-02-04T14:29:14;0.73;;;0.60;;
1294;SDS011;640;48.310;11.728;2023-02-04T14:31:42;0.60;;;0.60;;
1294;SDS011;640;48.310;11.728;2023-02-04T14:34:10;3.85;;;0.93;;
1294;SDS011;640;48.310;11.728;2023-02-04T14:36:39;0.98;;;0.60;;
1294;SDS011;640;48.310;11.728;2023-02-04T14:39:07;0.73;;;0.60;;
1294;SDS011;640;48.310;11.728;2023-02-04T14:41:36;0.98;;;0.60;;
1294;SDS011;640;48.310;11.728;2023-02-04T14:44:04;1.55;;;0.50;;
1294;SDS011;640;48.310;11.728;2023-02-04T14:46:34;0.55;;;0.50;;
1294;SDS011;640;48.310;11.728;2023-02-04T14:49:02;0.85;;;0.50;;
1294;SDS011;640;48.310;11.728;2023-02-04T14:51:30;0.73;;;0.50;;
1294;SDS011;640;48.310;11.728;2023-02-04T14:53:59;0.98;;;0.45;;
1294;SDS011;640;48.310;11.728;2023-02-04T14:56:28;1.02;;;0.60;;
1294;SDS011;640;48.310;11.728;2023-02-04T14:58:56;0.75;;;0.75;;
1294;SDS011;640;48.310;11.728;2023-02-04T15:01:25;0.57;;;0.55;;
1294;SDS011;640;48.310;11.728;2023-02-04T15:03:55;2.47;;;0.52;;
1294;SDS011;640;48.310;11.728;2023-02-04T15:06:24;0.60;;;0.50;;
1294;SDS011;640;48.310;11.728;2023-02-04T15:08:52;0.55;;;0.50;;
1294;SDS011;640;48.310;11.728;2023-02-04T15:11:21;1.83;;;0.65;;
1294;SDS011;640;48.310;11.728;2023-02-04T15:13:49;1.15;;;0.55;;
1294;SDS011;640;48.310;11.728;2023-02-04T15:16:17;0.30;;;0.30;;
1294;SDS011;640;48.310;11.728;2023-02-04T15:18:46;0.30;;;0.30;;
1294;SDS011;640;48.310;11.728;2023-02-04T15:21:16;0.50;;;0.50;;
1294;SDS011;640;48.310;11.728;2023-02-04T15:23:44;0.50;;;0.50;;
1294;SDS011;640;48.310;11.728;2023-02-04T15:26:13;0.85;;;0.45;;
1294;SDS011;640;48.310;11.728;2023-02-04T15:28:42;0.70;;;0.60;;
1294;SDS011;640;48.310;11.728;2023-02-04T15:31:10;0.40;;;0.40;;
1294;SDS011;640;48.310;11.728;2023-02-04T15:33:39;2.85;;;1.08;;
1294;SDS011;640;48.310;11.728;2023-02-04T15:36:07;0.65;;;0.50;;
1294;SDS011;640;48.310;11.728;2023-02-04T15:38:37;0.65;;;0.45;;
1294;SDS011;640;48.310;11.728;2023-02-04T15:41:05;1.33;;;0.63;;
1294;SDS011;640;48.310;11.728;2023-02-04T15:43:34;3.00;;;1.40;;
1294;SDS011;640;48.310;11.728;2023-02-04T15:46:02;2.00;;;1.20;;
1294;SDS011;640;48.310;11.728;2023-02-04T15:48:31;1.05;;;0.90;;
1294;SDS011;640;48.310;11.728;2023-02-04T15:50:59;0.80;;;0.80;;